Time;durP1;ratioP1;P1;durP2;ratioP2;P2;SDS_P1;SDS_P2;PMS_P1;PMS_P2;Temp;Humidity;BMP_temperature;BMP_pressure;BME280_temperature;BME280_humidity;BME280_pressure;Samples;Min_cycle;Max_cycle;Signal;HPM_P1;HPM_P2
2021/10/22 00:00:05;;;;;;;5.35;2.10;;;;;;;7.16;70.76;92560.44;2045185;70;20287;-77
2021/10/22 00:02:38;;;;;;;5.50;2.10;;;;;;;7.19;70.97;92562.06;2045262;70;20516;-78
2021/10/22 00:05:04;;;;;;;4.85;2.13;;;;;;;7.13;71.29;92561.63;2045096;70;20143;-78
2021/10/22 00:07:30;;;;;;;4.22;2.30;;;;;;;6.85;73.11;92565.94;2045010;70;20230;-82
2021/10/22 00:09:57;;;;;;;5.68;2.40;;;;;;;6.86;72.09;92573.00;2045115;70;20206;-80
2021/10/22 00:12:23;;;;;;;5.18;3.10;;;;;;;6.92;72.04;92567.84;2045145;70;20147;-82
2021/10/22 00:14:49;;;;;;;6.63;3.08;;;;;;;6.95;73.12;92574.31;2045688;70;20171;-76
2021/10/22 00:17:15;;;;;;;5.70;2.90;;;;;;;6.91;72.10;92574.03;2045182;70;20186;-72
2021/10/22 00:19:41;;;;;;;5.88;2.60;;;;;;;7.04;71.77;92570.78;2045152;70;20280;-77
2021/10/22 00:22:07;;;;;;;7.28;3.50;;;;;;;7.07;71.21;92580.81;2045166;70;20150;-75
2021/10/22 00:24:32;;;;;;;6.97;3.13;;;;;;;6.57;74.42;92584.19;2045664;70;20257;-72
2021/10/22 00:26:58;;;;;;;4.85;2.78;;;;;;;6.62;74.09;92585.97;2045715;70;20214;-78
2021/10/22 00:29:24;;;;;;;4.90;2.55;;;;;;;6.82;73.10;92581.09;2045284;70;20128;-76
2021/10/22 00:31:49;;;;;;;4.07;2.30;;;;;;;7.00;72.05;92578.88;2045184;70;20265;-86
2021/10/22 00:34:15;;;;;;;4.43;2.60;;;;;;;7.11;71.91;92561.50;2044905;70;20155;-81
2021/10/22 00:36:42;;;;;;;5.22;2.80;;;;;;;7.18;72.73;92568.25;2045197;70;20127;-75
2021/10/22 00:39:08;;;;;;;7.32;2.55;;;;;;;7.09;73.12;92570.47;2044530;70;20146;-83
2021/10/22 00:41:34;;;;;;;8.15;3.35;;;;;;;7.24;71.73;92571.47;2045422;70;20154;-76
2021/10/22 00:44:00;;;;;;;10.07;3.90;;;;;;;7.24;72.50;92580.63;2045273;70;20506;-73
2021/10/22 00:46:30;;;;;;;7.60;4.07;;;;;;;6.79;76.08;92577.44;2044984;70;20143;-71
2021/10/22 00:48:55;;;;;;;8.43;4.00;;;;;;;7.13;73.93;92575.63;2044350;70;20694;-73
2021/10/22 00:51:22;;;;;;;7.75;3.42;;;;;;;7.19;73.96;92572.53;2045145;70;20187;-73
2021/10/22 00:53:48;;;;;;;9.18;3.67;;;;;;;7.14;73.06;92569.44;2041930;70;20201;-74
2021/10/22 00:56:16;;;;;;;15.27;5.88;;;;;;;7.04;74.65;92573.56;2045019;70;20246;-73
2021/10/22 00:58:42;;;;;;;9.52;4.68;;;;;;;7.17;73.75;92573.13;2044982;70;20169;-74
2021/10/22 01:01:09;;;;;;;10.55;5.10;;;;;;;7.05;73.52;92584.16;2044837;70;20221;-74
2021/10/22 01:03:35;;;;;;;11.30;5.50;;;;;;;6.92;75.37;92607.03;2044816;70;20143;-75
2021/10/22 01:06:01;;;;;;;11.95;4.97;;;;;;;7.22;73.74;92600.06;2045011;70;20153;-75
2021/10/22 01:08:32;;;;;;;6.88;3.38;;;;;;;7.32;73.14;92597.97;2045097;70;20227;-80
2021/10/22 01:10:59;;;;;;;9.13;3.92;;;;;;;7.47;72.27;92598.97;2044736;70;20198;-84
2021/10/22 01:13:25;;;;;;;7.22;3.40;;;;;;;7.37;71.50;92596.94;2045262;70;20143;-77
2021/10/22 01:15:51;;;;;;;8.30;3.63;;;;;;;6.91;75.86;92599.22;2046698;70;20135;-71
2021/10/22 01:18:17;;;;;;;8.50;2.90;;;;;;;7.23;73.72;92606.41;2048521;70;20233;-83
2021/10/22 01:20:43;;;;;;;5.53;2.85;;;;;;;7.29;73.35;92593.59;2045969;70;20173;-78
2021/10/22 01:23:09;;;;;;;5.50;3.10;;;;;;;7.46;72.09;92589.84;2045816;70;20155;-82
2021/10/22 01:25:35;;;;;;;7.55;3.22;;;;;;;7.31;72.42;92604.91;2045713;70;20154;-81
2021/10/22 01:28:02;;;;;;;7.90;2.80;;;;;;;7.33;73.68;92598.72;2045873;70;20650;-81
2021/10/22 01:30:29;;;;;;;6.15;2.95;;;;;;;7.52;70.99;92597.97;2045685;70;20150;-82
2021/10/22 01:33:03;;;;;;;5.25;2.80;;;;;;;7.56;72.11;92606.63;2045691;70;20174;-83
2021/10/22 01:35:30;;;;;;;5.60;2.60;;;;;;;7.55;73.08;92611.50;2045741;70;20575;-80
2021/10/22 01:37:55;;;;;;;5.32;2.80;;;;;;;7.34;73.70;92617.75;2045666;70;20139;-80
2021/10/22 01:40:21;;;;;;;4.97;2.92;;;;;;;7.33;73.46;92616.28;2045836;70;20530;-86
2021/10/22 01:42:47;;;;;;;5.63;2.75;;;;;;;7.42;73.29;92625.25;2045716;70;20154;-79
2021/10/22 01:45:14;;;;;;;5.00;2.63;;;;;;;7.37;73.14;92624.22;2045839;70;20618;-86
2021/10/22 01:47:40;;;;;;;6.80;2.78;;;;;;;7.31;73.99;92624.53;2045668;70;20796;-88
2021/10/22 01:50:06;;;;;;;8.68;3.17;;;;;;;7.43;71.36;92630.25;2045228;70;20607;-85
2021/10/22 01:52:32;;;;;;;6.85;2.75;;;;;;;7.37;72.87;92630.53;2045898;70;20159;-77
2021/10/22 01:54:58;;;;;;;4.30;2.55;;;;;;;7.39;71.12;92624.38;2046005;70;20197;-81
2021/10/22 01:57:25;;;;;;;4.93;2.65;;;;;;;7.30;72.80;92625.84;2045787;70;20599;-82
2021/10/22 01:59:51;;;;;;;5.45;2.97;;;;;;;7.13;73.17;92617.63;2045653;70;20222;-82
2021/10/22 02:02:17;;;;;;;6.68;3.00;;;;;;;7.29;73.26;92618.78;2045203;70;20163;-83
2021/10/22 02:04:43;;;;;;;8.15;3.00;;;;;;;7.37;73.02;92621.41;2045073;70;20159;-82
2021/10/22 02:07:09;;;;;;;4.40;2.83;;;;;;;7.36;73.21;92620.69;2045651;70;20647;-84
2021/10/22 02:09:35;;;;;;;3.88;2.80;;;;;;;7.41;71.51;92612.56;2045838;70;20155;-80
2021/10/22 02:12:00;;;;;;;4.32;2.80;;;;;;;7.06;73.27;92612.94;2045883;70;20158;-81
2021/10/22 02:14:26;;;;;;;5.07;2.88;;;;;;;7.30;72.13;92625.84;2045863;70;20154;-80
2021/10/22 02:16:51;;;;;;;7.47;2.90;;;;;;;7.31;72.51;92632.19;2046363;70;20526;-78
2021/10/22 02:19:19;;;;;;;5.50;2.80;;;;;;;7.33;72.90;92626.72;2045623;70;20531;-81
2021/10/22 02:21:44;;;;;;;8.85;3.17;;;;;;;7.34;72.35;92617.75;2045698;70;20599;-81
2021/10/22 02:24:10;;;;;;;5.70;2.92;;;;;;;7.30;72.63;92622.31;2046108;70;20142;-78
2021/10/22 02:26:35;;;;;;;6.13;3.05;;;;;;;7.35;71.95;92619.22;2046791;70;20181;-83
2021/10/22 02:29:01;;;;;;;6.55;2.78;;;;;;;7.38;72.36;92623.63;2046375;70;20158;-79
2021/10/22 02:31:27;;;;;;;6.00;2.70;;;;;;;7.43;71.41;92618.31;2045547;70;20226;-78
2021/10/22 02:33:53;;;;;;;6.68;3.00;;;;;;;7.39;70.11;92622.31;2046085;70;20634;-80
2021/10/22 02:36:21;;;;;;;5.28;2.58;;;;;;;7.37;70.80;92622.16;2045737;70;20155;-77
2021/10/22 02:38:46;;;;;;;9.43;3.20;;;;;;;7.06;72.98;92627.66;2045584;70;20147;-79
2021/10/22 02:41:12;;;;;;;5.53;3.15;;;;;;;6.89;74.78;92619.41;2045716;70;20151;-84
2021/10/22 02:43:38;;;;;;;8.18;3.42;;;;;;;7.19;73.86;92622.91;2045056;70;20150;-78
2021/10/22 02:46:04;;;;;;;6.88;2.92;;;;;;;7.34;72.19;92626.16;2045617;70;20191;-79
2021/10/22 02:48:30;;;;;;;7.47;2.97;;;;;;;7.34;72.34;92617.75;2045389;70;20139;-77
2021/10/22 02:50:56;;;;;;;4.40;3.08;;;;;;;7.37;72.05;92610.94;2045769;70;20542;-82
2021/10/22 02:53:22;;;;;;;6.65;2.97;;;;;;;7.34;72.75;92617.00;2045613;70;20143;-83
2021/10/22 02:55:49;;;;;;;6.07;2.97;;;;;;;7.38;72.13;92612.44;2045811;70;20195;-77
2021/10/22 02:58:15;;;;;;;5.38;3.00;;;;;;;7.27;73.11;92621.44;2045597;70;20514;-83
2021/10/22 03:00:40;;;;;;;6.10;2.83;;;;;;;7.36;72.39;92615.06;2045594;70;20155;-85
2021/10/22 03:03:08;;;;;;;4.50;2.72;;;;;;;7.36;72.77;92600.34;2048895;70;20144;-83
2021/10/22 03:05:34;;;;;;;7.07;2.90;;;;;;;7.34;71.76;92603.75;2046387;70;20147;-82
2021/10/22 03:07:59;;;;;;;5.35;3.15;;;;;;;7.19;74.18;92603.31;2045713;70;20291;-75
2021/10/22 03:10:26;;;;;;;8.07;2.60;;;;;;;7.17;73.85;92594.78;2045679;70;20238;-83
2021/10/22 03:12:52;;;;;;;5.70;3.13;;;;;;;7.31;73.30;92602.13;2045574;70;20225;-73
2021/10/22 03:15:19;;;;;;;6.75;3.20;;;;;;;7.29;73.38;92590.78;2045623;70;20281;-81
2021/10/22 03:17:45;;;;;;;4.25;2.47;;;;;;;7.26;72.64;92599.63;2045607;70;20147;-86
2021/10/22 03:20:11;;;;;;;6.18;2.95;;;;;;;7.29;72.33;92596.38;2046991;70;20198;-77
2021/10/22 03:22:38;;;;;;;6.38;3.42;;;;;;;7.25;72.44;92596.09;2046799;70;20177;-80
2021/10/22 03:25:06;;;;;;;6.00;3.33;;;;;;;7.31;71.56;92587.38;2047162;70;20311;-81
2021/10/22 03:27:34;;;;;;;6.30;3.10;;;;;;;7.29;72.40;92593.59;2046558;70;20630;-82
2021/10/22 03:30:00;;;;;;;9.98;5.63;;;;;;;6.51;76.20;92601.28;2047238;70;20142;-81
2021/10/22 03:32:25;;;;;;;4.80;3.15;;;;;;;6.85;74.37;92611.44;2045843;70;20598;-87
2021/10/22 03:34:51;;;;;;;6.10;3.80;;;;;;;7.08;73.42;92611.00;2045633;70;20135;-82
2021/10/22 03:37:17;;;;;;;5.45;3.55;;;;;;;7.10;73.11;92610.38;2045561;70;20142;-83
2021/10/22 03:39:43;;;;;;;6.85;3.50;;;;;;;7.10;72.61;92616.75;2045500;70;20185;-84
2021/10/22 03:42:09;;;;;;;7.18;4.13;;;;;;;7.14;72.07;92621.88;2044942;70;20151;-82
2021/10/22 03:44:35;;;;;;;6.10;3.38;;;;;;;7.18;71.34;92630.56;2045479;70;20165;-86
2021/10/22 03:47:00;;;;;;;4.20;3.00;;;;;;;7.12;70.91;92636.47;2045992;70;20197;-74
2021/10/22 03:49:26;;;;;;;10.82;7.57;;;;;;;7.10;71.75;92633.56;2045622;70;20520;-78
2021/10/22 03:51:53;;;;;;;29.17;19.20;;;;;;;6.95;72.70;92636.63;2045680;70;20143;-87
2021/10/22 03:54:19;;;;;;;33.13;21.38;;;;;;;6.91;73.92;92633.53;2045596;70;20139;-82
2021/10/22 03:56:44;;;;;;;26.35;17.15;;;;;;;7.00;72.96;92632.06;2045533;70;20142;-86
2021/10/22 03:59:10;;;;;;;22.23;15.88;;;;;;;6.75;74.93;92633.09;2045458;70;20641;-87
2021/10/22 04:01:36;;;;;;;17.95;11.93;;;;;;;6.85;75.04;92633.09;2045568;70;20150;-75
2021/10/22 04:04:01;;;;;;;17.58;10.90;;;;;;;6.92;73.43;92637.06;2045312;70;20159;-86
2021/10/22 04:06:27;;;;;;;16.92;10.55;;;;;;;6.90;74.53;92634.13;2045448;70;20607;-79
2021/10/22 04:08:52;;;;;;;16.20;9.68;;;;;;;6.95;73.50;92644.28;2045569;70;20179;-78
2021/10/22 04:11:18;;;;;;;23.50;10.85;;;;;;;6.86;72.85;92643.69;2045026;70;20139;-78
2021/10/22 04:13:43;;;;;;;20.00;10.85;;;;;;;6.62;74.65;92633.53;2045944;70;20147;-85
2021/10/22 04:16:09;;;;;;;14.13;8.50;;;;;;;6.74;75.65;92647.69;2045759;70;20158;-84
2021/10/22 04:18:35;;;;;;;13.65;8.13;;;;;;;6.89;74.29;92653.00;2045566;70;20161;-77
2021/10/22 04:21:00;;;;;;;9.80;6.70;;;;;;;6.90;73.82;92654.44;2045763;70;20151;-81
2021/10/22 04:23:26;;;;;;;12.25;7.32;;;;;;;6.96;73.39;92662.56;2045690;70;20178;-87
2021/10/22 04:25:54;;;;;;;9.77;6.75;;;;;;;6.93;73.62;92670.06;2045661;70;20158;-80
2021/10/22 04:28:20;;;;;;;9.32;4.30;;;;;;;6.93;72.29;92670.06;2045725;70;20153;-76
2021/10/22 04:30:46;;;;;;;6.68;3.58;;;;;;;6.91;73.11;92666.38;2045960;70;20161;-80
2021/10/22 04:33:12;;;;;;;7.63;4.10;;;;;;;7.03;73.54;92665.22;2045773;70;20732;-84
2021/10/22 04:35:37;;;;;;;8.43;5.25;;;;;;;6.94;75.24;92659.63;2044831;70;20151;-77
2021/10/22 04:40:52;;;;;;;6.57;4.00;;;;;;;7.05;73.06;92647.81;2045510;70;20146;-87
2021/10/22 04:43:18;;;;;;;7.30;4.43;;;;;;;7.05;73.01;92653.41;2045431;70;20230;-79
2021/10/22 04:45:48;;;;;;;6.50;4.45;;;;;;;7.04;73.71;92666.69;2045265;70;20514;-81
2021/10/22 04:48:14;;;;;;;9.23;4.53;;;;;;;7.12;73.28;92672.88;2047492;70;20246;-71
2021/10/22 04:50:48;;;;;;;8.68;5.18;;;;;;;6.94;73.73;92673.59;2048276;70;20159;-82
2021/10/22 04:53:14;;;;;;;7.75;4.90;;;;;;;6.82;74.04;92673.44;2046138;70;20151;-82
2021/10/22 04:55:40;;;;;;;10.55;5.90;;;;;;;6.64;76.12;92658.84;2045793;70;20138;-79
2021/10/22 04:58:07;;;;;;;14.05;7.40;;;;;;;6.55;76.60;92654.72;2045874;70;20158;-85
2021/10/22 05:00:34;;;;;;;15.63;7.55;;;;;;;6.80;76.22;92659.31;2045738;70;20237;-75
2021/10/22 05:03:00;;;;;;;12.07;6.25;;;;;;;6.94;75.46;92651.22;2045804;70;20153;-88
2021/10/22 05:05:26;;;;;;;14.52;7.05;;;;;;;7.04;74.35;92665.94;2046108;70;20185;-83
2021/10/22 05:07:52;;;;;;;14.73;7.18;;;;;;;7.05;74.06;92665.34;2046639;70;20155;-79
2021/10/22 05:10:17;;;;;;;11.00;5.88;;;;;;;6.84;74.72;92668.00;2047089;70;20293;-81
2021/10/22 05:12:43;;;;;;;9.52;5.90;;;;;;;6.90;74.97;92668.44;2046803;70;20538;-79
2021/10/22 05:15:10;;;;;;;11.15;5.70;;;;;;;7.06;72.46;92666.84;2046310;70;20155;-83
2021/10/22 05:17:37;;;;;;;9.15;4.93;;;;;;;7.11;72.19;92667.88;2046285;70;20155;-85
2021/10/22 05:20:08;;;;;;;7.00;4.00;;;;;;;7.16;72.59;92677.31;2046263;70;20190;-85
2021/10/22 05:22:38;;;;;;;16.70;7.97;;;;;;;6.74;76.19;92676.41;2045805;70;20233;-83
2021/10/22 05:25:06;;;;;;;11.27;6.85;;;;;;;7.03;74.10;92676.41;2045953;70;20162;-83
2021/10/22 05:27:31;;;;;;;12.55;6.50;;;;;;;7.05;73.64;92673.75;2045857;70;20604;-81
2021/10/22 05:29:57;;;;;;;12.10;7.00;;;;;;;7.11;73.57;92671.41;2045920;70;20214;-80
2021/10/22 05:32:22;;;;;;;12.60;7.15;;;;;;;7.17;73.25;92668.31;2045797;70;20210;-81
2021/10/22 05:34:48;;;;;;;9.88;5.18;;;;;;;7.26;71.56;92656.38;2045880;70;20626;-86
2021/10/22 05:37:14;;;;;;;9.30;4.25;;;;;;;7.27;72.10;92657.09;2045889;70;20158;-83
2021/10/22 05:39:40;;;;;;;9.50;3.97;;;;;;;7.24;72.96;92658.28;2045948;70;20155;-90
2021/10/22 05:42:06;;;;;;;6.40;4.53;;;;;;;7.23;73.07;92654.00;2045852;70;20147;-84
2021/10/22 05:44:31;;;;;;;10.07;5.03;;;;;;;7.27;71.71;92652.22;2045911;70;20606;-81
2021/10/22 05:46:58;;;;;;;10.88;5.93;;;;;;;7.28;71.66;92642.50;2045858;70;20626;-75
2021/10/22 05:49:24;;;;;;;10.60;6.47;;;;;;;7.31;72.14;92643.38;2045670;70;20231;-81
2021/10/22 05:51:50;;;;;;;8.45;4.55;;;;;;;7.17;73.85;92643.09;2045802;70;20170;-86
2021/10/22 05:54:16;;;;;;;9.18;3.55;;;;;;;7.26;72.66;92641.63;2045880;70;20154;-83
2021/10/22 05:56:42;;;;;;;5.80;2.75;;;;;;;7.31;71.94;92638.53;2045921;70;20536;-84
2021/10/22 05:59:08;;;;;;;10.90;6.47;;;;;;;6.81;75.24;92650.31;2046592;70;20591;-90
2021/10/22 06:01:34;;;;;;;12.35;5.63;;;;;;;7.13;73.44;92657.53;2046249;70;20162;-86
2021/10/22 06:04:00;;;;;;;8.75;5.07;;;;;;;7.07;72.42;92659.19;2045707;70;20155;-77
2021/10/22 06:06:26;;;;;;;10.65;5.43;;;;;;;7.05;73.91;92667.41;2045860;70;20663;-83
2021/10/22 06:08:52;;;;;;;10.20;6.53;;;;;;;6.94;74.88;92687.59;2045786;70;20520;-88
2021/10/22 06:11:18;;;;;;;8.65;5.75;;;;;;;7.05;72.99;92684.94;2046038;70;20151;-88
2021/10/22 06:13:44;;;;;;;9.68;4.90;;;;;;;7.16;72.21;92678.03;2045879;70;20201;-90
2021/10/22 06:16:11;;;;;;;7.47;4.43;;;;;;;7.19;72.94;92671.25;2046007;70;20186;-88
2021/10/22 06:18:45;;;;;;;9.02;4.95;;;;;;;7.18;73.50;92680.25;2045758;70;20155;-85
2021/10/22 06:21:29;;;;;;;19.23;8.75;;;;;;;6.45;76.51;92703.56;2045953;70;20575;-85
2021/10/22 06:24:01;;;;;;;13.25;7.15;;;;;;;6.82;75.11;92701.41;2045957;70;20212;-87
2021/10/22 06:26:32;;;;;;;12.15;6.10;;;;;;;7.00;73.10;92690.84;2046200;70;20601;-82
2021/10/22 06:29:00;;;;;;;15.35;8.77;;;;;;;6.63;75.72;92699.31;2045952;70;20218;-79
2021/10/22 06:31:27;;;;;;;20.63;8.38;;;;;;;6.40;77.83;92698.97;2045780;70;20182;-84
2021/10/22 06:33:54;;;;;;;16.70;7.45;;;;;;;6.83;76.11;92692.47;2046122;70;20683;-80
2021/10/22 06:36:20;;;;;;;15.15;7.10;;;;;;;7.01;75.03;92698.66;2049976;70;20198;-75
2021/10/22 06:38:46;;;;;;;13.13;6.93;;;;;;;7.01;74.81;92701.47;2048903;70;20158;-84
2021/10/22 06:41:12;;;;;;;17.33;7.40;;;;;;;7.19;73.84;92706.91;2046120;70;20577;-89
2021/10/22 06:43:39;;;;;;;14.48;6.82;;;;;;;7.21;73.32;92715.47;2045839;70;20536;-90
2021/10/22 06:46:07;;;;;;;38.58;20.73;;;;;;;6.96;74.03;92710.13;2045759;70;20625;-81
2021/10/22 06:48:38;;;;;;;17.48;10.10;;;;;;;6.88;75.81;92713.09;2045705;70;20163;-79
2021/10/22 06:51:05;;;;;;;21.05;12.05;;;;;;;6.63;77.40;92727.31;2046415;70;20637;-90
2021/10/22 06:53:31;;;;;;;24.70;13.23;;;;;;;6.92;77.18;92732.97;2045776;70;20743;-87
2021/10/22 06:55:57;;;;;;;21.60;12.02;;;;;;;7.18;76.15;92727.84;2045785;70;20153;-89
2021/10/22 06:58:23;;;;;;;24.52;12.88;;;;;;;7.37;75.10;92714.56;2046056;70;20142;-85
2021/10/22 07:00:49;;;;;;;23.40;11.98;;;;;;;7.53;75.27;92711.47;2045551;70;20147;-86
2021/10/22 07:03:20;;;;;;;31.75;14.60;;;;;;;7.22;76.16;92709.28;2045529;70;20159;-80
2021/10/22 07:08:32;;;;;;;18.25;10.48;;;;;;;7.72;72.74;92722.66;2042895;70;20689;-89
2021/10/22 07:10:58;;;;;;;14.50;9.80;;;;;;;7.74;72.79;92725.59;2047264;70;20154;-89
2021/10/22 07:13:23;;;;;;;16.17;8.82;;;;;;;7.68;74.31;92725.16;2045970;70;20550;-85
2021/10/22 07:15:49;;;;;;;15.43;8.23;;;;;;;7.43;75.76;92731.09;2046271;70;20151;-89
2021/10/22 07:18:15;;;;;;;10.45;6.78;;;;;;;7.56;74.91;92741.84;2045730;70;20218;-89
2021/10/22 07:20:41;;;;;;;33.55;18.10;;;;;;;7.75;73.49;92729.88;2045822;70;20151;-88
2021/10/22 07:23:08;;;;;;;15.30;8.43;;;;;;;7.76;73.43;92736.22;2045431;70;20139;-83
2021/10/22 07:25:37;;;;;;;18.00;9.02;;;;;;;7.58;74.85;92747.59;2046055;70;20178;-90
2021/10/22 07:28:12;;;;;;;13.82;8.55;;;;;;;7.79;74.79;92749.78;2045866;70;20159;-88
2021/10/22 07:30:41;;;;;;;15.27;8.43;;;;;;;8.12;73.38;92749.28;2045980;70;20150;-82
2021/10/22 07:33:07;;;;;;;12.65;7.63;;;;;;;7.87;74.38;92752.44;2045908;70;20162;-89
2021/10/22 07:35:33;;;;;;;29.75;17.67;;;;;;;8.06;73.59;92746.03;2045206;70;20151;-89
2021/10/22 07:37:59;;;;;;;20.35;10.43;;;;;;;8.34;73.84;92750.84;2045558;70;20153;-81
2021/10/22 07:40:25;;;;;;;12.02;7.60;;;;;;;8.52;71.76;92751.41;2046092;70;20237;-85
2021/10/22 07:42:51;;;;;;;11.50;6.57;;;;;;;8.62;72.08;92759.78;2045932;70;20231;-80
2021/10/22 07:45:17;;;;;;;9.40;5.43;;;;;;;8.73;72.22;92749.97;2049553;70;20292;-85
2021/10/22 07:47:43;;;;;;;12.13;6.45;;;;;;;8.82;69.46;92758.34;2045954;70;20862;-86
2021/10/22 07:50:09;;;;;;;10.65;5.97;;;;;;;8.93;68.73;92750.59;2045683;70;20142;-88
2021/10/22 07:52:36;;;;;;;8.23;4.95;;;;;;;8.90;70.45;92758.91;2045512;70;20556;-85
2021/10/22 07:55:03;;;;;;;8.10;4.68;;;;;;;8.98;69.31;92761.53;2044861;70;20157;-80
2021/10/22 07:57:30;;;;;;;7.10;4.82;;;;;;;8.98;70.16;92755.91;2045445;70;20147;-81
2021/10/22 08:00:00;;;;;;;5.80;4.10;;;;;;;9.02;70.61;92761.78;2044859;70;20175;-77
2021/10/22 08:02:26;;;;;;;8.52;4.25;;;;;;;9.03;69.87;92763.28;2045201;70;20261;-86
2021/10/22 08:04:53;;;;;;;6.68;4.22;;;;;;;9.04;70.16;92758.38;2045485;70;20208;-86
2021/10/22 08:07:29;;;;;;;7.78;4.38;;;;;;;9.11;68.48;92763.06;2045502;70;20154;-88
2021/10/22 08:09:58;;;;;;;7.28;4.57;;;;;;;9.01;68.67;92757.50;2045569;70;20154;-84
2021/10/22 08:12:23;;;;;;;9.48;5.10;;;;;;;9.10;70.17;92758.78;2045557;70;20170;-85
2021/10/22 08:14:49;;;;;;;14.00;6.22;;;;;;;9.41;70.65;92765.09;2045603;70;20158;-85
2021/10/22 08:17:21;;;;;;;14.30;7.47;;;;;;;9.65;72.58;92759.59;2045223;70;20558;-78
2021/10/22 08:19:58;;;;;;;12.15;6.68;;;;;;;9.38;70.93;92760.66;2044475;70;20298;-85
2021/10/22 08:22:28;;;;;;;9.85;5.85;;;;;;;10.27;71.99;92764.97;2044813;70;20169;-82
2021/10/22 08:25:14;;;;;;;9.55;5.63;;;;;;;10.46;68.81;92763.31;2046068;70;20190;-75
2021/10/22 08:27:45;;;;;;;13.95;6.60;;;;;;;11.00;71.02;92756.72;2045726;70;20142;-83
2021/10/22 08:30:21;;;;;;;9.43;5.90;;;;;;;11.44;68.33;92762.19;2045384;70;20135;-83
2021/10/22 08:32:50;;;;;;;7.20;5.00;;;;;;;11.81;65.81;92763.56;2045496;70;20690;-83
2021/10/22 08:35:20;;;;;;;7.40;3.97;;;;;;;11.91;63.59;92758.50;2045101;70;20143;-82
2021/10/22 08:37:47;;;;;;;7.00;3.70;;;;;;;12.52;63.78;92767.56;2045460;70;20146;-82
2021/10/22 08:40:14;;;;;;;4.15;2.90;;;;;;;12.64;61.47;92756.16;2045937;70;20158;-83
2021/10/22 08:42:40;;;;;;;7.53;3.75;;;;;;;13.06;61.17;92757.00;2045650;70;20143;-84
2021/10/22 08:45:06;;;;;;;6.38;2.90;;;;;;;12.94;58.87;92760.63;2045511;70;20689;-79
2021/10/22 08:47:33;;;;;;;5.38;2.90;;;;;;;13.34;58.79;92761.31;2045170;70;20151;-87
2021/10/22 08:50:00;;;;;;;4.38;2.67;;;;;;;13.69;60.74;92772.28;2045119;70;20626;-84
2021/10/22 08:52:29;;;;;;;8.57;2.90;;;;;;;13.54;56.03;92760.88;2045107;70;20162;-79
2021/10/22 08:55:09;;;;;;;9.32;4.00;;;;;;;14.62;56.89;92777.50;2045149;70;20198;-84
2021/10/22 08:57:37;;;;;;;5.95;3.40;;;;;;;15.17;55.86;92777.19;2045180;70;20143;-81
2021/10/22 09:00:07;;;;;;;6.70;3.22;;;;;;;15.11;54.39;92774.78;2045225;70;20166;-84
2021/10/22 09:02:32;;;;;;;5.05;3.40;;;;;;;15.44;53.86;92776.97;2044955;70;20150;-81
2021/10/22 09:05:10;;;;;;;6.38;3.08;;;;;;;15.91;52.40;92775.44;2044978;70;20218;-83
2021/10/22 09:07:41;;;;;;;4.38;2.45;;;;;;;15.49;52.89;92770.13;2045139;70;20624;-83
2021/10/22 09:10:06;;;;;;;3.13;2.17;;;;;;;15.27;49.35;92769.13;2045063;70;20623;-85
2021/10/22 09:12:44;;;;;;;6.03;2.72;;;;;;;15.70;50.50;92765.31;2045127;70;20171;-85
2021/10/22 09:15:10;;;;;;;3.83;2.30;;;;;;;15.67;49.89;92764.53;2045099;70;20135;-81
2021/10/22 09:17:40;;;;;;;4.03;2.53;;;;;;;15.78;50.36;92754.31;2045221;70;20234;-81
2021/10/22 09:20:08;;;;;;;3.97;2.30;;;;;;;16.49;50.44;92750.81;2045217;70;20163;-85
2021/10/22 09:22:35;;;;;;;6.55;3.30;;;;;;;16.29;47.75;92761.38;2045270;70;20281;-82
2021/10/22 09:25:07;;;;;;;4.07;2.80;;;;;;;16.89;48.31;92748.84;2045149;70;20131;-82
2021/10/22 09:27:44;;;;;;;7.45;2.40;;;;;;;17.40;48.39;92745.06;2045058;70;20146;-79
2021/10/22 09:30:28;;;;;;;4.57;2.45;;;;;;;18.32;45.93;92745.38;2045360;70;20143;-84
2021/10/22 09:33:01;;;;;;;5.38;2.50;;;;;;;16.92;44.76;92738.31;2045026;70;20158;-79
2021/10/22 09:35:38;;;;;;;2.55;2.00;;;;;;;17.72;43.97;92739.06;2041787;70;20151;-79
2021/10/22 09:38:17;;;;;;;4.43;2.70;;;;;;;17.22;47.80;92742.25;2044885;70;20167;-79
2021/10/22 09:40:50;;;;;;;5.70;2.70;;;;;;;16.47;46.54;92742.22;2045344;70;20155;-86
2021/10/22 09:43:25;;;;;;;6.22;2.47;;;;;;;18.20;44.54;92740.03;2045602;70;20151;-83
2021/10/22 09:46:07;;;;;;;6.60;2.60;;;;;;;18.16;44.70;92742.75;2045577;70;20587;-82
2021/10/22 09:48:35;;;;;;;3.83;2.50;;;;;;;18.84;43.36;92748.50;2045365;70;20155;-82
2021/10/22 09:51:19;;;;;;;3.50;2.30;;;;;;;18.59;43.10;92743.38;2045571;70;20203;-77
2021/10/22 09:53:47;;;;;;;4.22;2.55;;;;;;;19.20;42.09;92751.72;2045625;70;20178;-82
2021/10/22 09:56:19;;;;;;;3.08;2.10;;;;;;;18.86;41.99;92742.84;2045477;70;20273;-81
2021/10/22 09:59:06;;;;;;;2.58;2.03;;;;;;;18.98;40.28;92743.22;2045656;70;20170;-82
2021/10/22 10:01:36;;;;;;;3.30;2.03;;;;;;;18.41;39.33;92749.22;2045643;70;20158;-85
2021/10/22 10:04:04;;;;;;;3.05;1.80;;;;;;;18.33;40.69;92744.00;2045470;70;20177;-81
2021/10/22 10:06:31;;;;;;;3.00;1.88;;;;;;;19.18;40.38;92742.38;2045425;70;20234;-75
2021/10/22 10:08:57;;;;;;;6.22;2.75;;;;;;;18.58;38.92;92748.38;2045469;70;20615;-82
2021/10/22 10:11:28;;;;;;;4.88;2.65;;;;;;;18.65;39.81;92746.44;2045722;70;20155;-83
2021/10/22 10:13:55;;;;;;;4.20;2.42;;;;;;;19.98;39.07;92745.38;2045560;70;20147;-80
2021/10/22 10:16:24;;;;;;;6.57;3.67;;;;;;;18.64;38.44;92750.69;2045439;70;20154;-80
2021/10/22 10:19:06;;;;;;;4.55;2.25;;;;;;;19.75;38.80;92744.03;2045293;70;20182;-79
2021/10/22 10:21:42;;;;;;;3.03;1.85;;;;;;;20.62;37.96;92748.44;2045522;70;20141;-87
2021/10/22 10:24:10;;;;;;;3.08;1.90;;;;;;;19.59;36.68;92747.13;2045559;70;20154;-85
2021/10/22 10:26:36;;;;;;;3.47;2.10;;;;;;;19.79;37.63;92744.13;2045464;70;20597;-81
2021/10/22 10:29:05;;;;;;;2.80;1.88;;;;;;;20.58;38.37;92744.75;2045101;70;20155;-81
2021/10/22 10:31:41;;;;;;;8.63;5.30;;;;;;;19.10;37.97;92737.16;2045453;70;20146;-84
2021/10/22 10:34:37;;;;;;;24.33;17.45;;;;;;;18.73;40.52;92732.47;2045335;70;20186;-83
2021/10/22 10:37:05;;;;;;;4.82;3.40;;;;;;;19.32;39.62;92730.63;2045557;70;20166;-80
2021/10/22 10:39:46;;;;;;;4.13;2.72;;;;;;;20.10;37.81;92734.22;2044956;70;20267;-83
2021/10/22 10:42:26;;;;;;;3.80;2.40;;;;;;;20.42;37.63;92736.47;2045592;70;20607;-74
2021/10/22 10:44:53;;;;;;;2.83;2.00;;;;;;;21.15;36.39;92731.75;2046051;70;20135;-73
2021/10/22 10:47:33;;;;;;;5.15;3.42;;;;;;;20.06;35.39;92725.56;2045555;70;20149;-84
2021/10/22 10:50:03;;;;;;;3.97;2.78;;;;;;;19.45;36.61;92727.47;2044946;70;20147;-84
2021/10/22 10:52:38;;;;;;;4.50;1.60;;;;;;;22.47;34.88;92728.66;2045496;70;20146;-80
2021/10/22 10:55:27;;;;;;;2.33;1.30;;;;;;;24.22;32.44;92733.25;2045666;70;20340;-82
2021/10/22 10:57:52;;;;;;;2.28;1.65;;;;;;;24.79;30.07;92727.34;2045744;70;20216;-75
2021/10/22 11:00:21;;;;;;;2.13;1.55;;;;;;;23.50;31.63;92722.31;2045488;70;20178;-78
2021/10/22 11:03:13;;;;;;;3.72;1.80;;;;;;;23.39;31.10;92712.13;2045478;70;20147;-80
2021/10/22 11:05:49;;;;;;;2.88;1.90;;;;;;;22.14;32.72;92718.03;2044985;70;20222;-77
2021/10/22 11:08:22;;;;;;;3.42;2.03;;;;;;;22.92;31.67;92712.19;2045666;70;20249;-76
2021/10/22 11:11:11;;;;;;;5.20;2.00;;;;;;;21.51;33.60;92698.19;2045658;70;20151;-79
2021/10/22 11:14:01;;;;;;;6.40;4.95;;;;;;;26.00;28.36;92702.84;2045450;70;20599;-74
2021/10/22 11:16:35;;;;;;;3.40;1.90;;;;;;;25.07;29.81;92701.66;2045413;70;20219;-76
2021/10/22 11:19:13;;;;;;;2.45;1.30;;;;;;;23.70;30.09;92693.88;2045383;70;20150;-80
2021/10/22 11:21:45;;;;;;;3.58;1.80;;;;;;;22.35;31.07;92682.56;2045650;70;20146;-78
2021/10/22 11:24:24;;;;;;;4.10;1.50;;;;;;;25.97;30.21;92692.75;2045494;70;20153;-80
2021/10/22 11:27:07;;;;;;;3.85;1.60;;;;;;;27.82;26.75;92686.25;2045480;70;20159;-77
2021/10/22 11:29:39;;;;;;;2.20;1.30;;;;;;;23.42;28.29;92676.25;2045486;70;20174;-81
2021/10/22 11:32:10;;;;;;;2.83;1.80;;;;;;;23.25;31.17;92673.16;2045488;70;20602;-81
2021/10/22 11:34:39;;;;;;;1.80;1.50;;;;;;;23.16;30.87;92665.88;2045338;70;20206;-83
2021/10/22 11:37:13;;;;;;;2.90;1.70;;;;;;;24.15;31.67;92670.63;2045423;70;20234;-81
2021/10/22 11:39:41;;;;;;;3.20;1.70;;;;;;;23.55;30.38;92664.22;2045410;70;20170;-78
2021/10/22 11:42:16;;;;;;;4.53;1.50;;;;;;;26.31;28.78;92671.94;2045538;70;20619;-74
2021/10/22 11:44:55;;;;;;;3.53;1.38;;;;;;;27.13;25.93;92677.75;2045462;70;20246;-76
2021/10/22 11:47:22;;;;;;;3.53;1.10;;;;;;;25.11;26.87;92675.03;2045284;70;20155;-81